Time;durP1;ratioP1;P1;durP2;ratioP2;P2;SDS_P1;SDS_P2;PMS_P1;PMS_P2;Temp;Humidity;BMP_temperature;BMP_pressure;BME280_temperature;BME280_humidity;BME280_pressure;Samples;Min_cycle;Max_cycle;Signal;HPM_P1;HPM_P2
2022/04/14 00:02:21;;;;;;;3.58;3.28;;;;;;;20.48;49.97;101857.59;5010638;28;20037;-71
2022/04/14 00:04:47;;;;;;;3.10;2.90;;;;;;;20.48;49.65;101849.31;5013746;28;20079;-71
2022/04/14 00:07:12;;;;;;;3.45;3.20;;;;;;;20.47;49.83;101848.47;5014558;28;20112;-71
2022/04/14 00:09:37;;;;;;;3.33;3.13;;;;;;;20.47;49.67;101847.63;4996892;28;20038;-71
2022/04/14 00:12:03;;;;;;;3.50;3.30;;;;;;;20.47;49.66;101840.19;5014235;28;20112;-71
2022/04/14 00:14:29;;;;;;;3.53;3.22;;;;;;;20.47;49.93;101845.72;5013369;28;20034;-71
2022/04/14 00:16:54;;;;;;;3.53;3.22;;;;;;;20.46;49.74;101846.81;5030483;28;20042;-71
2022/04/14 00:19:19;;;;;;;3.67;3.38;;;;;;;20.47;49.66;101842.94;5013561;28;20509;-71
2022/04/14 00:21:45;;;;;;;3.72;3.42;;;;;;;20.46;50.04;101843.22;5013136;28;20041;-71
2022/04/14 00:24:11;;;;;;;3.63;3.33;;;;;;;20.47;49.86;101842.13;5014130;28;20117;-71
2022/04/14 00:26:36;;;;;;;3.50;3.20;;;;;;;20.47;49.72;101839.38;5014085;28;20022;-71
2022/04/14 00:29:02;;;;;;;3.35;3.15;;;;;;;20.46;49.72;101835.78;5014042;28;20036;-71
2022/04/14 00:31:27;;;;;;;3.60;3.30;;;;;;;20.46;49.81;101837.69;5013646;28;20420;-71
2022/04/14 00:33:53;;;;;;;3.63;3.30;;;;;;;20.45;49.73;101836.88;5013931;28;20422;-71
2022/04/14 00:36:18;;;;;;;3.58;3.28;;;;;;;20.46;49.92;101840.44;5013570;28;20037;-71
2022/04/14 00:38:43;;;;;;;3.30;3.10;;;;;;;20.45;49.73;101830.53;5013903;28;20474;-71
2022/04/14 00:41:09;;;;;;;3.65;3.35;;;;;;;20.45;49.65;101836.88;5012387;28;20034;-71
2022/04/14 00:43:35;;;;;;;3.40;3.10;;;;;;;20.45;49.81;101833.28;5013521;28;20492;-71
2022/04/14 00:46:02;;;;;;;3.45;3.17;;;;;;;20.45;49.88;101834.13;5012487;28;20526;-72
2022/04/14 00:48:29;;;;;;;3.55;3.25;;;;;;;20.43;49.75;101825.28;5013728;28;20382;-71
2022/04/14 00:50:54;;;;;;;3.30;3.05;;;;;;;20.45;49.86;101838.81;5012396;28;20065;-72
2022/04/14 00:53:22;;;;;;;3.45;3.15;;;;;;;20.43;49.89;101835.47;5013586;28;20060;-71
2022/04/14 00:55:48;;;;;;;3.53;3.22;;;;;;;20.44;49.77;101832.44;5013366;28;20045;-71
2022/04/14 00:58:14;;;;;;;3.63;3.33;;;;;;;20.45;49.77;101836.06;5012121;28;20132;-72
2022/04/14 01:00:39;;;;;;;3.38;3.08;;;;;;;20.45;49.72;101836.06;5013218;28;20535;-71
2022/04/14 01:03:05;;;;;;;3.20;3.00;;;;;;;20.44;49.78;101837.13;5012353;28;20042;-71
2022/04/14 01:05:31;;;;;;;3.30;3.00;;;;;;;20.44;49.94;101837.13;5013372;28;20382;-72
2022/04/14 01:07:57;;;;;;;3.35;3.05;;;;;;;20.43;49.87;101839.06;5013387;28;20167;-71
2022/04/14 01:10:25;;;;;;;3.53;3.25;;;;;;;20.42;49.66;101833.81;4996590;28;20078;-71
2022/04/14 01:12:52;;;;;;;3.13;2.88;;;;;;;20.43;49.75;101827.19;5011979;28;20089;-71
2022/04/14 01:15:17;;;;;;;3.10;2.90;;;;;;;20.42;49.90;101836.56;4995367;28;20042;-71
2022/04/14 01:17:42;;;;;;;3.25;3.05;;;;;;;20.43;49.85;101838.22;5013318;28;20030;-72
2022/04/14 01:20:11;;;;;;;3.10;2.90;;;;;;;20.42;49.60;101839.31;5012040;28;20045;-72
2022/04/14 01:22:42;;;;;;;3.50;3.20;;;;;;;20.41;49.61;101832.97;5012566;28;20069;-71
2022/04/14 01:25:08;;;;;;;3.38;3.17;;;;;;;20.40;49.71;101823.03;5013229;28;20030;-71
2022/04/14 01:27:33;;;;;;;3.15;2.95;;;;;;;20.42;49.92;101831.06;4995631;28;20030;-71
2022/04/14 01:29:59;;;;;;;3.10;2.90;;;;;;;20.42;49.76;101829.13;5013371;28;20484;-72
2022/04/14 01:32:24;;;;;;;3.25;2.95;;;;;;;20.40;49.74;101824.94;5012285;28;20029;-72
2022/04/14 01:34:50;;;;;;;3.42;3.13;;;;;;;20.40;49.74;101825.78;5012792;28;20057;-71
2022/04/14 01:37:16;;;;;;;3.25;3.05;;;;;;;20.41;49.42;101835.72;5012948;28;20127;-71
2022/04/14 01:39:42;;;;;;;2.92;2.72;;;;;;;20.39;49.82;101832.41;5011566;28;20489;-71
2022/04/14 01:42:08;;;;;;;3.45;3.15;;;;;;;20.39;49.74;101834.31;5012745;28;20075;-71
2022/04/14 01:44:33;;;;;;;3.10;2.90;;;;;;;20.40;49.84;101831.28;5012948;28;20033;-71
2022/04/14 01:46:59;;;;;;;3.25;2.95;;;;;;;20.40;49.79;101827.72;5012889;28;20438;-71
2022/04/14 01:49:24;;;;;;;3.65;3.03;;;;;;;20.39;49.79;101828.78;5013109;28;20041;-71
2022/04/14 01:51:50;;;;;;;3.28;3.08;;;;;;;20.40;49.79;101835.97;5011146;28;20435;-71
2022/04/14 01:54:16;;;;;;;3.05;2.85;;;;;;;20.38;49.75;101833.47;5012747;28;20040;-71
2022/04/14 01:56:42;;;;;;;3.13;2.92;;;;;;;20.38;49.72;101830.72;5012754;28;20026;-71
2022/04/14 01:59:08;;;;;;;3.60;3.30;;;;;;;20.38;49.82;101830.72;5013281;28;20053;-71
2022/04/14 02:01:33;;;;;;;3.30;3.10;;;;;;;20.38;49.62;101835.41;5012311;28;20037;-71
2022/04/14 02:04:01;;;;;;;3.20;2.90;;;;;;;20.38;49.59;101833.47;5012847;28;20100;-71
2022/04/14 02:06:27;;;;;;;3.25;3.00;;;;;;;20.38;49.79;101840.94;5012140;28;20034;-71
2022/04/14 02:08:52;;;;;;;3.17;2.97;;;;;;;20.38;49.56;101839.00;5011353;28;20030;-71
2022/04/14 02:11:17;;;;;;;3.47;3.20;;;;;;;20.38;49.66;101835.41;5011379;28;20038;-71
2022/04/14 02:13:43;;;;;;;3.20;3.00;;;;;;;20.38;49.77;101843.69;5012431;28;20068;-71
2022/04/14 02:16:08;;;;;;;3.42;3.13;;;;;;;20.37;50.00;101842.81;5011155;28;20045;-72
2022/04/14 02:18:34;;;;;;;3.40;3.10;;;;;;;20.38;49.59;101841.75;5013144;28;20025;-71
2022/04/14 02:21:00;;;;;;;3.60;3.22;;;;;;;20.36;49.67;101843.94;5012025;28;20033;-71
2022/04/14 02:23:25;;;;;;;3.38;3.17;;;;;;;20.36;49.65;101843.09;5012293;28;20423;-71
2022/04/14 02:25:51;;;;;;;3.47;3.17;;;;;;;20.36;49.77;101843.09;5011701;28;20546;-71
2022/04/14 02:28:16;;;;;;;3.30;3.00;;;;;;;20.37;49.54;101850.28;5011233;28;20485;-71
2022/04/14 02:30:41;;;;;;;3.70;3.40;;;;;;;20.37;49.54;101855.78;4994997;28;20466;-71
2022/04/14 02:33:07;;;;;;;3.58;3.30;;;;;;;20.36;49.50;101852.22;5011787;28;20026;-71
2022/04/14 02:35:32;;;;;;;3.38;3.10;;;;;;;20.36;49.52;101851.34;5012047;28;20056;-72
2022/04/14 02:37:57;;;;;;;3.25;3.05;;;;;;;20.35;49.90;101847.78;5011810;28;20083;-72
2022/04/14 02:40:24;;;;;;;3.33;3.03;;;;;;;20.37;49.57;101858.53;5011992;28;20094;-72
2022/04/14 02:42:50;;;;;;;3.30;3.00;;;;;;;20.35;49.61;101863.50;5010716;28;20120;-72
2022/04/14 02:45:16;;;;;;;3.33;3.03;;;;;;;20.36;49.60;101851.34;5011035;28;20034;-72
2022/04/14 02:47:41;;;;;;;3.33;3.03;;;;;;;20.35;49.78;101850.53;5012441;28;20079;-72
2022/04/14 02:50:08;;;;;;;3.47;3.17;;;;;;;20.34;49.57;101854.38;5010752;28;20066;-72
2022/04/14 02:52:34;;;;;;;3.35;3.15;;;;;;;20.34;49.70;101857.13;5012152;28;20091;-72
2022/04/14 02:54:59;;;;;;;3.35;3.05;;;;;;;20.34;49.66;101859.88;5012534;28;20034;-72
2022/04/14 02:57:24;;;;;;;3.20;3.00;;;;;;;20.33;49.57;101850.78;5011316;28;20554;-72
2022/04/14 02:59:50;;;;;;;3.45;3.15;;;;;;;20.32;49.65;101849.13;5010517;28;20127;-72
2022/04/14 03:02:15;;;;;;;3.08;2.88;;;;;;;20.34;49.65;101843.34;5044036;28;20050;-72
2022/04/14 03:04:41;;;;;;;3.50;3.20;;;;;;;20.33;49.39;101842.53;5010216;28;20069;-71
2022/04/14 03:07:06;;;;;;;3.20;2.95;;;;;;;20.34;49.46;101851.63;5011577;28;20029;-72
2022/04/14 03:09:31;;;;;;;3.45;3.15;;;;;;;20.32;49.41;101851.88;5011141;28;20037;-71
2022/04/14 03:11:57;;;;;;;3.55;3.25;;;;;;;20.33;49.66;101844.47;5010809;28;20041;-71
2022/04/14 03:14:22;;;;;;;3.15;2.95;;;;;;;20.33;49.51;101845.28;5010651;28;20079;-71
2022/04/14 03:16:47;;;;;;;3.42;3.10;;;;;;;20.32;49.47;101845.53;5011734;28;20493;-72
2022/04/14 03:19:13;;;;;;;3.58;3.28;;;;;;;20.33;49.54;101847.22;5011998;28;20377;-71
2022/04/14 03:21:38;;;;;;;3.17;2.97;;;;;;;20.32;49.48;101853.81;5011410;28;20045;-71
2022/04/14 03:24:04;;;;;;;3.65;3.35;;;;;;;20.33;49.64;101859.06;5011374;28;20033;-71
2022/04/14 03:26:29;;;;;;;3.25;3.05;;;;;;;20.33;49.40;101855.47;5011369;28;20036;-72
2022/04/14 03:28:55;;;;;;;3.30;3.10;;;;;;;20.33;49.42;101849.97;5010064;28;20026;-71
2022/04/14 03:31:20;;;;;;;3.30;3.00;;;;;;;20.33;49.45;101855.47;5011265;28;20069;-71
2022/04/14 03:33:45;;;;;;;3.22;3.03;;;;;;;20.33;49.40;101849.97;5010065;28;20359;-71
2022/04/14 03:36:11;;;;;;;3.42;3.13;;;;;;;20.33;49.26;101849.97;5009946;28;20488;-72
2022/04/14 03:38:36;;;;;;;3.30;3.10;;;;;;;20.32;49.38;101854.63;5009956;28;20037;-72
2022/04/14 03:41:05;;;;;;;3.22;2.92;;;;;;;20.32;49.28;101856.56;5010028;28;20034;-71
2022/04/14 03:43:32;;;;;;;3.00;2.80;;;;;;;20.32;49.50;101857.38;5011158;28;20057;-71
2022/04/14 03:45:57;;;;;;;2.97;2.78;;;;;;;20.32;49.24;101853.81;5010835;28;20083;-71
2022/04/14 03:48:22;;;;;;;3.25;2.95;;;;;;;20.30;49.40;101847.72;5011380;28;20408;-71
2022/04/14 03:50:48;;;;;;;3.17;2.85;;;;;;;20.31;49.42;101852.13;5009914;28;20037;-71
2022/04/14 03:53:13;;;;;;;3.50;3.20;;;;;;;20.31;49.31;101847.47;5010973;28;20034;-72
2022/04/14 03:55:39;;;;;;;3.28;3.08;;;;;;;20.31;49.16;101847.47;5009794;28;20038;-72
2022/04/14 03:58:04;;;;;;;3.30;3.00;;;;;;;20.31;49.36;101849.38;5010569;28;20081;-72
2022/04/14 04:00:30;;;;;;;3.28;3.05;;;;;;;20.31;49.49;101841.09;5009792;28;20075;-72
2022/04/14 04:02:55;;;;;;;3.33;3.05;;;;;;;20.31;49.48;101847.47;5010905;28;20045;-72
2022/04/14 04:05:20;;;;;;;3.10;2.90;;;;;;;20.31;49.26;101852.97;5010831;28;20112;-72
2022/04/14 04:07:46;;;;;;;3.22;3.00;;;;;;;20.30;49.23;101854.06;5010559;28;20117;-72
2022/04/14 04:10:12;;;;;;;3.13;2.92;;;;;;;20.31;49.34;101860.41;5010571;28;20053;-71
2022/04/14 04:12:37;;;;;;;3.03;2.72;;;;;;;20.30;49.21;101853.25;5010719;28;20125;-71
2022/04/14 04:15:03;;;;;;;3.28;2.97;;;;;;;20.30;49.27;101856.81;5010071;28;20120;-72
2022/04/14 04:17:29;;;;;;;3.13;2.92;;;;;;;20.30;49.23;101862.31;5009315;28;20562;-72
2022/04/14 04:19:55;;;;;;;3.08;2.88;;;;;;;20.29;49.21;101862.59;5011482;28;20474;-72
2022/04/14 04:22:20;;;;;;;3.25;2.95;;;;;;;20.29;49.25;101873.59;5010962;28;20034;-72
2022/04/14 04:24:46;;;;;;;3.30;3.00;;;;;;;20.29;49.35;101877.19;5011203;28;20071;-71
2022/04/14 04:27:11;;;;;;;3.15;2.95;;;;;;;20.30;49.16;101867.03;5010607;28;20488;-71
2022/04/14 04:29:36;;;;;;;3.17;2.90;;;;;;;20.29;49.41;101881.88;5009737;28;20034;-72
2022/04/14 04:32:02;;;;;;;3.00;2.80;;;;;;;20.29;49.30;101879.13;5009768;28;20038;-71
2022/04/14 04:34:27;;;;;;;2.97;2.78;;;;;;;20.29;49.09;101879.13;5010253;28;20030;-72
2022/04/14 04:36:53;;;;;;;3.00;2.80;;;;;;;20.29;49.08;101892.91;5009533;28;20062;-71
2022/04/14 04:39:18;;;;;;;2.90;2.70;;;;;;;20.27;49.12;101882.13;5009758;28;20034;-72
2022/04/14 04:41:44;;;;;;;2.90;2.70;;;;;;;20.29;49.11;101895.66;5009560;28;20462;-72
2022/04/14 04:44:09;;;;;;;3.17;2.88;;;;;;;20.27;49.05;101887.66;5010103;28;20033;-72
2022/04/14 04:46:35;;;;;;;3.05;2.85;;;;;;;20.27;49.11;101890.41;5009164;28;20087;-68
2022/04/14 04:49:00;;;;;;;3.17;2.90;;;;;;;20.27;49.22;101887.66;5010785;28;20455;-69
2022/04/14 04:51:26;;;;;;;3.20;2.95;;;;;;;20.28;49.17;101893.97;5014075;28;20125;-69
2022/04/14 04:53:52;;;;;;;2.90;2.70;;;;;;;20.28;49.37;101886.53;5012599;28;20030;-69
2022/04/14 04:56:20;;;;;;;2.85;2.65;;;;;;;20.27;49.63;101893.16;5012302;28;20423;-69
2022/04/14 04:58:46;;;;;;;3.05;2.85;;;;;;;20.26;49.53;101897.00;5013754;28;20541;-72
2022/04/14 05:01:12;;;;;;;4.60;4.20;;;;;;;20.16;48.94;101896.84;5013827;28;20420;-71
2022/04/14 05:03:38;;;;;;;6.13;5.53;;;;;;;19.94;49.21;101896.81;5013740;28;20055;-72
2022/04/14 05:06:04;;;;;;;6.88;6.28;;;;;;;19.76;49.42;101903.41;5013142;28;20462;-72
2022/04/14 05:08:29;;;;;;;7.65;6.95;;;;;;;19.59;49.42;101906.16;5013391;28;20108;-72
2022/04/14 05:10:54;;;;;;;7.30;6.68;;;;;;;19.46;49.68;101897.16;4995666;28;20058;-71
2022/04/14 05:13:20;;;;;;;7.72;7.03;;;;;;;19.36;49.83;101901.66;5013253;28;20038;-72
2022/04/14 05:15:45;;;;;;;7.95;7.25;;;;;;;19.29;50.05;101901.81;4995822;28;20038;-74
2022/04/14 05:18:11;;;;;;;8.43;7.63;;;;;;;19.26;50.11;101902.31;5012189;28;20062;-70
2022/04/14 05:20:36;;;;;;;8.10;7.40;;;;;;;19.31;50.33;101907.06;5013197;28;20034;-72
2022/04/14 05:23:03;;;;;;;7.45;6.75;;;;;;;19.38;50.19;101905.81;5013484;28;20049;-75
2022/04/14 05:25:29;;;;;;;7.38;6.70;;;;;;;19.48;50.15;101918.09;5012900;28;20034;-70
2022/04/14 05:27:54;;;;;;;7.25;6.60;;;;;;;19.57;50.50;101906.41;5012743;28;20034;-71
2022/04/14 05:30:20;;;;;;;6.72;6.13;;;;;;;19.63;50.19;101913.69;5013666;28;20158;-72
2022/04/14 05:32:45;;;;;;;6.75;6.00;;;;;;;19.69;50.08;101916.50;5013822;28;20454;-73
2022/04/14 05:35:10;;;;;;;6.75;6.15;;;;;;;19.75;50.38;101921.84;5013075;28;20036;-68
2022/04/14 05:37:36;;;;;;;6.72;6.03;;;;;;;19.81;51.34;101920.03;5012991;28;20030;-68
2022/04/14 05:40:03;;;;;;;7.07;5.93;;;;;;;19.86;50.72;101922.06;5012900;28;20026;-69
2022/04/14 05:42:29;;;;;;;5.93;5.32;;;;;;;19.87;51.10;101930.06;5013225;28;20045;-67
2022/04/14 05:44:54;;;;;;;6.22;5.53;;;;;;;19.90;52.60;101929.56;5013186;28;20037;-68
2022/04/14 05:47:23;;;;;;;9.95;5.35;;;;;;;19.96;52.34;101938.69;5011626;28;20038;-69
2022/04/14 05:49:49;;;;;;;6.88;5.93;;;;;;;19.96;52.56;101934.03;5012747;28;20037;-69
2022/04/14 05:52:14;;;;;;;7.03;5.90;;;;;;;19.99;51.81;101935.47;5012726;28;20044;-69
2022/04/14 05:54:39;;;;;;;7.28;6.35;;;;;;;19.98;51.87;101931.03;5012831;28;20491;-69
2022/04/14 05:57:05;;;;;;;7.28;6.18;;;;;;;20.00;51.96;101937.13;5011395;28;20045;-68
2022/04/14 05:59:30;;;;;;;8.43;6.40;;;;;;;20.02;52.02;101936.84;5012591;28;20026;-69
2022/04/14 06:01:56;;;;;;;7.15;6.28;;;;;;;20.02;52.19;101943.22;5011761;28;20453;-69
2022/04/14 06:04:21;;;;;;;7.50;6.25;;;;;;;20.02;52.40;101936.84;5011347;28;20030;-69
2022/04/14 06:06:46;;;;;;;10.70;7.43;;;;;;;20.04;52.10;101937.47;5012754;28;20137;-69
2022/04/14 06:09:12;;;;;;;7.38;6.68;;;;;;;20.04;52.34;101943.78;5012525;28;20040;-69
2022/04/14 06:11:38;;;;;;;9.68;6.85;;;;;;;20.04;51.99;101942.97;5012309;28;20410;-69
2022/04/14 06:14:04;;;;;;;10.88;7.10;;;;;;;20.04;51.95;101940.22;5011207;28;20484;-68
2022/04/14 06:16:29;;;;;;;8.57;6.57;;;;;;;20.02;52.00;101942.38;5012474;28;20037;-68
2022/04/14 06:18:55;;;;;;;8.23;6.50;;;;;;;20.04;51.99;101935.53;5012351;28;20488;-69
2022/04/14 06:21:20;;;;;;;7.90;6.60;;;;;;;20.06;51.97;101944.38;5010760;28;20056;-69
2022/04/14 06:23:45;;;;;;;8.20;6.68;;;;;;;20.06;51.99;101938.03;5012328;28;20038;-69
2022/04/14 06:26:11;;;;;;;8.48;6.90;;;;;;;20.08;51.81;101938.63;4994674;28;20041;-69
2022/04/14 06:28:37;;;;;;;8.52;6.38;;;;;;;20.07;52.13;101943.28;5011587;28;20060;-69
2022/04/14 06:31:02;;;;;;;9.63;6.93;;;;;;;20.07;52.02;101943.28;4994775;28;20513;-69
2022/04/14 06:33:30;;;;;;;10.70;7.25;;;;;;;20.09;51.87;101946.63;4994535;28;20045;-69
2022/04/14 06:35:56;;;;;;;8.32;6.65;;;;;;;20.10;51.80;101945.53;5011669;28;20466;-68
2022/04/14 06:38:24;;;;;;;7.13;6.40;;;;;;;20.09;51.74;101943.88;5011195;28;20038;-68
2022/04/14 06:40:49;;;;;;;7.07;6.20;;;;;;;20.10;51.81;101953.78;5012251;28;20045;-69
2022/04/14 06:43:15;;;;;;;8.50;6.53;;;;;;;20.08;51.80;101950.47;5012224;28;20385;-69
2022/04/14 06:45:40;;;;;;;7.18;6.47;;;;;;;20.11;51.73;101954.66;5010776;28;20034;-69
2022/04/14 06:48:07;;;;;;;7.63;6.82;;;;;;;20.10;51.74;101951.03;5011534;28;20045;-69
2022/04/14 06:50:33;;;;;;;7.65;6.47;;;;;;;20.11;51.91;101949.97;5010607;28;20044;-69
2022/04/14 06:52:58;;;;;;;7.43;6.40;;;;;;;20.11;51.82;101957.41;5011750;28;20123;-69
2022/04/14 06:55:23;;;;;;;7.03;6.28;;;;;;;20.12;51.61;101948.88;5011811;28;20077;-69
2022/04/14 06:57:50;;;;;;;7.13;6.43;;;;;;;20.12;51.67;101954.41;5011695;28;20073;-70
2022/04/14 07:00:15;;;;;;;7.53;6.43;;;;;;;20.13;51.74;101947.78;4994195;28;20037;-69
2022/04/14 07:02:45;;;;;;;6.95;6.25;;;;;;;20.14;51.58;101948.63;5011393;28;20038;-68
2022/04/14 07:05:11;;;;;;;6.72;6.00;;;;;;;20.14;51.67;101946.69;5011622;28;20095;-68
2022/04/14 07:07:36;;;;;;;7.53;6.22;;;;;;;20.14;51.31;101948.63;5011121;28;20374;-68
2022/04/14 07:10:02;;;;;;;7.68;6.18;;;;;;;20.14;51.42;101949.44;5010177;28;20034;-69
2022/04/14 07:12:27;;;;;;;6.80;6.07;;;;;;;20.16;51.58;101951.97;5011166;28;20029;-69
2022/04/14 07:14:52;;;;;;;7.25;6.40;;;;;;;20.16;51.58;101952.78;5010589;28;20078;-69
2022/04/14 07:17:20;;;;;;;7.13;6.43;;;;;;;20.16;51.46;101955.53;5011572;28;20136;-69
2022/04/14 07:19:46;;;;;;;7.43;5.80;;;;;;;20.17;51.38;101959.13;5011769;28;20113;-69
2022/04/14 07:22:16;;;;;;;6.55;5.75;;;;;;;20.17;51.36;101959.13;5011378;28;20069;-69
2022/04/14 07:24:41;;;;;;;6.55;5.80;;;;;;;20.16;51.35;101958.28;5009813;28;20098;-69
2022/04/14 07:27:07;;;;;;;9.63;6.18;;;;;;;20.19;51.44;101958.88;5011117;28;20470;-69
2022/04/14 07:29:32;;;;;;;7.80;6.05;;;;;;;20.19;51.47;101967.16;5010042;28;20084;-69
2022/04/14 07:31:57;;;;;;;6.78;6.05;;;;;;;20.18;51.20;101966.31;5010834;28;20064;-68
2022/04/14 07:34:23;;;;;;;6.32;5.72;;;;;;;20.19;51.18;101972.66;5009967;28;20041;-69
2022/04/14 07:36:48;;;;;;;8.57;6.32;;;;;;;20.20;51.21;101968.84;4993568;28;20042;-69
2022/04/14 07:39:14;;;;;;;6.35;5.70;;;;;;;20.20;51.25;101968.84;5011208;28;20061;-69
2022/04/14 07:41:39;;;;;;;6.50;5.90;;;;;;;20.20;51.34;101968.84;5009723;28;20038;-69
2022/04/14 07:44:05;;;;;;;7.68;5.78;;;;;;;20.21;51.25;101973.22;5010845;28;20030;-69
2022/04/14 07:46:30;;;;;;;6.38;5.60;;;;;;;20.21;51.39;101970.47;5009612;28;20422;-69
2022/04/14 07:48:56;;;;;;;6.75;5.78;;;;;;;20.22;51.34;101969.41;5009867;28;20034;-69
2022/04/14 07:51:21;;;;;;;6.45;5.47;;;;;;;20.22;51.25;101970.22;5010719;28;20041;-69
2022/04/14 07:53:46;;;;;;;6.53;5.90;;;;;;;20.22;51.31;101972.16;5009831;28;20401;-69
2022/04/14 07:56:12;;;;;;;6.57;5.97;;;;;;;20.22;50.97;101972.97;5010023;28;20076;-69
2022/04/14 07:58:38;;;;;;;6.43;5.68;;;;;;;20.22;51.18;101972.97;5009487;28;20410;-69
2022/04/14 08:01:04;;;;;;;5.85;5.25;;;;;;;20.23;51.21;101976.59;5010096;28;20489;-69
2022/04/14 08:03:29;;;;;;;6.40;5.80;;;;;;;20.24;51.08;101978.22;5010836;28;20038;-68
2022/04/14 08:05:55;;;;;;;6.30;5.70;;;;;;;20.23;51.08;101971.06;5011009;28;20026;-69
2022/04/14 08:08:21;;;;;;;6.68;5.55;;;;;;;20.24;51.14;101975.47;5011031;28;20058;-69
2022/04/14 08:10:49;;;;;;;6.78;5.43;;;;;;;20.23;51.19;101971.91;5009529;28;20474;-69
2022/04/14 08:13:16;;;;;;;5.80;5.30;;;;;;;20.25;51.24;101982.66;5010643;28;20041;-69
2022/04/14 08:15:43;;;;;;;6.22;5.32;;;;;;;20.25;51.17;101974.41;5010664;28;20470;-69
2022/04/14 08:18:08;;;;;;;5.75;5.25;;;;;;;20.24;51.04;101981.84;5009555;28;20453;-69
2022/04/14 08:20:35;;;;;;;6.18;5.55;;;;;;;20.26;51.30;101973.31;5010993;28;20474;-69
2022/04/14 08:23:02;;;;;;;6.10;5.50;;;;;;;20.25;51.25;101975.22;5010584;28;20034;-69
2022/04/14 08:25:35;;;;;;;6.05;5.55;;;;;;;20.26;51.02;101979.66;5012523;28;20054;-68
2022/04/14 08:28:03;;;;;;;5.70;5.10;;;;;;;20.27;51.63;101980.47;5013986;28;20374;-68
2022/04/14 08:30:30;;;;;;;5.82;5.22;;;;;;;20.29;51.93;101979.16;5012648;28;20030;-69
2022/04/14 08:33:05;;;;;;;6.20;5.20;;;;;;;20.29;52.30;101979.16;5014162;28;20120;-69
2022/04/14 08:35:32;;;;;;;5.70;5.13;;;;;;;20.31;52.13;101978.91;5013727;28;20470;-69
2022/04/14 08:37:58;;;;;;;6.07;5.35;;;;;;;20.31;52.26;101982.50;5013664;28;20470;-68
2022/04/14 08:40:29;;;;;;;5.80;5.20;;;;;;;20.31;52.17;101988.00;5013873;28;20041;-69
2022/04/14 08:43:01;;;;;;;5.80;5.18;;;;;;;20.32;51.94;101989.66;5012878;28;20534;-69
2022/04/14 08:45:31;;;;;;;5.50;4.90;;;;;;;20.33;52.16;101976.75;5013504;28;20030;-69
2022/04/14 08:47:58;;;;;;;5.53;5.00;;;;;;;20.34;52.50;101978.38;5014593;28;20041;-69
2022/04/14 08:50:25;;;;;;;5.32;4.82;;;;;;;20.34;52.52;101978.38;5013392;28;20462;-68
2022/04/14 08:52:51;;;;;;;6.82;5.45;;;;;;;20.33;52.83;101971.22;5013644;28;20038;-68
2022/04/14 08:55:17;;;;;;;5.55;4.90;;;;;;;20.33;52.94;101973.97;5013602;28;20116;-69
2022/04/14 08:57:43;;;;;;;5.38;4.88;;;;;;;20.35;53.24;101980.06;5013315;28;20050;-69
2022/04/14 09:00:11;;;;;;;6.07;4.97;;;;;;;20.36;53.58;101981.75;5013335;28;20624;-69
2022/04/14 09:02:37;;;;;;;6.07;5.10;;;;;;;20.36;53.43;101973.47;5013480;28;20040;-69
2022/04/14 09:05:03;;;;;;;6.25;4.70;;;;;;;20.37;53.37;101971.53;5013738;28;20060;-70
2022/04/14 09:07:29;;;;;;;5.28;4.78;;;;;;;20.37;53.24;101980.63;5013383;28;20061;-69
2022/04/14 09:09:54;;;;;;;5.20;4.70;;;;;;;20.37;53.24;101977.88;5013423;28;20093;-69
2022/04/14 09:12:20;;;;;;;5.55;4.80;;;;;;;20.37;53.14;101986.13;5013374;28;20030;-68
2022/04/14 09:14:46;;;;;;;5.32;4.82;;;;;;;20.38;53.16;101993.34;5012403;28;20036;-69
2022/04/14 09:17:12;;;;;;;5.05;4.55;;;;;;;20.39;53.25;101983.97;5012962;28;20466;-69
2022/04/14 09:19:38;;;;;;;4.82;4.32;;;;;;;20.38;53.23;101979.56;5012152;28;20040;-68
2022/04/14 09:22:10;;;;;;;5.88;4.70;;;;;;;20.39;53.30;101972.97;5012066;28;20033;-68
2022/04/14 09:24:47;;;;;;;;;;;;;;;20.42;52.22;101957.84;5013570;28;20037;-68
2022/04/14 09:27:32;;;;;;;4.68;4.15;;;;;;;20.40;52.70;101965.50;5013144;28;19909;-68
2022/04/14 09:30:03;;;;;;;4.93;4.43;;;;;;;20.39;52.82;101963.84;5012474;28;20034;-68
2022/04/14 09:32:32;;;;;;;4.60;4.15;;;;;;;20.40;53.76;101968.28;5012899;28;20480;-70
2022/04/14 09:34:59;;;;;;;5.25;4.50;;;;;;;20.40;53.35;101963.59;4995574;28;20064;-71
2022/04/14 09:37:26;;;;;;;4.38;3.97;;;;;;;20.41;53.88;101954.22;5027927;28;20054;-71
2022/04/14 09:39:56;;;;;;;4.75;4.28;;;;;;;20.41;53.66;101950.66;5011863;28;20034;-70
2022/04/14 09:42:26;;;;;;;5.00;4.50;;;;;;;20.40;53.27;101951.72;5012609;28;20057;-71
2022/04/14 09:44:52;;;;;;;4.60;4.20;;;;;;;20.39;53.46;101950.91;5012809;28;20087;-71
2022/04/14 09:47:25;;;;;;;4.60;4.20;;;;;;;20.39;53.22;101948.16;4979117;28;20030;-71
2022/04/14 09:49:51;;;;;;;4.97;4.32;;;;;;;20.38;53.21;101952.00;5012826;28;20034;-71
2022/04/14 09:52:16;;;;;;;4.25;3.80;;;;;;;20.36;53.05;101939.53;5011310;28;20087;-71
2022/04/14 09:54:41;;;;;;;5.05;4.15;;;;;;;20.37;53.23;101935.72;5012452;28;20044;-70
2022/04/14 09:57:10;;;;;;;4.50;4.00;;;;;;;20.38;53.09;101940.13;4995251;28;20038;-71
2022/04/14 09:59:37;;;;;;;4.93;3.90;;;;;;;20.38;53.13;101937.38;5011459;28;20030;-71
2022/04/14 10:02:17;;;;;;;5.47;3.88;;;;;;;20.39;52.77;101941.78;5012935;28;20045;-70
2022/04/14 10:04:47;;;;;;;3.90;3.60;;;;;;;20.38;53.01;101929.94;5011802;28;20102;-71
2022/04/14 10:07:16;;;;;;;4.38;3.97;;;;;;;20.39;53.48;101937.13;5011347;28;20477;-71
2022/04/14 10:09:48;;;;;;;4.07;3.65;;;;;;;20.37;53.04;101924.69;5011809;28;20066;-70
2022/04/14 10:12:19;;;;;;;3.90;3.60;;;;;;;20.40;53.18;101937.94;5012372;28;20062;-71
2022/04/14 10:14:57;;;;;;;3.67;3.37;;;;;;;20.40;53.19;101935.19;5011784;28;20625;-70
2022/04/14 10:17:24;;;;;;;4.05;3.50;;;;;;;20.40;53.67;101949.81;5012644;28;20355;-71
2022/04/14 10:19:53;;;;;;;3.65;3.35;;;;;;;20.41;53.75;101948.72;5012367;28;20033;-71
2022/04/14 10:22:19;;;;;;;3.90;3.60;;;;;;;20.41;53.47;101968.00;4995131;28;20038;-71
2022/04/14 10:24:46;;;;;;;3.88;3.47;;;;;;;20.43;53.65;101973.28;5010895;28;20049;-71
2022/04/14 10:27:14;;;;;;;3.92;3.58;;;;;;;20.44;53.71;101978.53;4994509;28;20029;-71
2022/04/14 10:29:40;;;;;;;3.78;3.47;;;;;;;20.44;53.90;101985.97;5010886;28;20034;-71
2022/04/14 10:32:07;;;;;;;3.70;3.40;;;;;;;20.46;54.09;101981.88;5012312;28;20378;-70
2022/04/14 10:34:33;;;;;;;3.80;3.42;;;;;;;20.44;54.05;101970.25;5012134;28;20041;-71
2022/04/14 10:37:02;;;;;;;4.05;3.45;;;;;;;20.47;53.77;101969.75;5010711;28;20041;-71
2022/04/14 10:39:31;;;;;;;4.15;3.45;;;;;;;20.47;53.95;101978.00;5011767;28;20037;-71
2022/04/14 10:41:57;;;;;;;3.80;3.50;;;;;;;20.47;53.95;101982.72;5011203;28;20034;-71
2022/04/14 10:44:23;;;;;;;3.63;3.33;;;;;;;20.47;54.14;101989.03;5010806;28;20377;-70
2022/04/14 10:46:50;;;;;;;3.58;3.28;;;;;;;20.47;54.02;101989.03;4993804;28;20038;-71
2022/04/14 10:49:32;;;;;;;3.47;3.17;;;;;;;20.50;53.81;101990.47;5011615;28;20445;-70
2022/04/14 10:52:25;;;;;;;3.70;3.03;;;;;;;20.51;53.63;101973.66;5010826;28;20034;-71
2022/04/14 10:55:01;;;;;;;4.68;3.30;;;;;;;20.50;53.80;101979.44;5012255;28;20030;-71
2022/04/14 10:57:37;;;;;;;4.28;3.40;;;;;;;20.51;53.78;101975.59;5011764;28;20065;-71
2022/04/14 11:00:22;;;;;;;3.47;3.17;;;;;;;20.51;53.63;101976.44;5011785;28;20033;-70
2022/04/14 11:03:04;;;;;;;3.40;3.10;;;;;;;20.52;53.64;101968.97;5011555;28;20044;-70
2022/04/14 11:05:45;;;;;;;3.13;2.83;;;;;;;20.52;53.83;101971.72;5010446;28;20389;-71
2022/04/14 11:08:27;;;;;;;3.88;2.92;;;;;;;20.55;53.45;101971.25;5011671;28;20038;-71
2022/04/14 11:11:09;;;;;;;3.15;2.95;;;;;;;20.54;53.62;101972.34;5011588;28;20030;-70
2022/04/14 11:13:50;;;;;;;;;;;;;;;20.57;53.28;101971.81;5012273;28;20034;-70
2022/04/14 11:16:45;;;;;;;3.05;2.75;;;;;;;20.56;53.58;101972.91;5011278;28;20306;-71
2022/04/14 11:19:20;;;;;;;3.00;2.80;;;;;;;20.56;53.84;101966.56;5012010;28;20382;-71
2022/04/14 11:22:08;;;;;;;3.47;2.90;;;;;;;20.58;53.49;101961.63;5011363;28;20072;-71
2022/04/14 11:24:36;;;;;;;2.80;2.60;;;;;;;20.57;53.94;101969.06;5010471;28;20083;-71
2022/04/14 11:27:12;;;;;;;3.28;2.97;;;;;;;20.58;53.07;101962.47;5011161;28;20482;-71